Time;durP1;ratioP1;P1;durP2;ratioP2;P2;SDS_P1;SDS_P2;PMS_P1;PMS_P2;Temp;Humidity;BMP_temperature;BMP_pressure;BME280_temperature;BME280_humidity;BME280_pressure;Samples;Min_cycle;Max_cycle;Signal;HPM_P1;HPM_P2
2021/12/29 00:00:14;;;;;;;8.98;6.80;;;6.20;99.90;;;;;;4807148;29;20376;-80
2021/12/29 00:02:40;;;;;;;7.10;5.15;;;6.10;99.90;;;;;;4794853;29;20511;-80
2021/12/29 00:05:06;;;;;;;7.72;5.88;;;6.30;99.90;;;;;;4814534;29;20480;-80
2021/12/29 00:07:32;;;;;;;;;;;6.10;99.90;;;;;;4805203;29;20050;-80
2021/12/29 00:10:00;;;;;;;8.00;5.22;;;6.20;99.90;;;;;;4799610;29;20306;-80
2021/12/29 00:12:26;;;;;;;8.23;6.20;;;6.30;99.90;;;;;;4810447;29;20050;-80
2021/12/29 00:14:56;;;;;;;8.20;6.50;;;6.30;99.90;;;;;;4813023;29;20054;-80
2021/12/29 00:17:22;;;;;;;8.73;6.63;;;6.10;99.90;;;;;;4823036;29;20061;-80
2021/12/29 00:19:48;;;;;;;;;;;6.20;99.90;;;;;;4824481;29;20046;-80
2021/12/29 00:22:14;;;;;;;8.25;6.18;;;6.20;99.90;;;;;;4817499;29;19929;-80
2021/12/29 00:24:40;;;;;;;8.95;6.70;;;6.40;99.90;;;;;;4821628;29;20488;-80
2021/12/29 00:27:07;;;;;;;8.25;6.25;;;6.30;99.90;;;;;;4819575;29;20073;-80
2021/12/29 00:29:33;;;;;;;7.60;5.72;;;6.20;99.90;;;;;;4813594;29;20057;-80
2021/12/29 00:31:59;;;;;;;7.88;5.68;;;6.20;99.90;;;;;;4825164;29;20419;-80
2021/12/29 00:34:25;;;;;;;8.35;6.13;;;6.30;99.90;;;;;;4821319;29;20132;-80
2021/12/29 00:36:50;;;;;;;9.90;6.43;;;6.50;99.90;;;;;;4821324;29;20133;-80
2021/12/29 00:39:16;;;;;;;8.48;6.40;;;6.50;99.90;;;;;;4804066;29;20053;-80
2021/12/29 00:41:42;;;;;;;8.35;5.80;;;6.50;99.90;;;;;;4803252;29;20168;-80
2021/12/29 00:44:08;;;;;;;10.40;6.90;;;6.30;99.90;;;;;;4820909;29;20548;-78
2021/12/29 00:46:37;;;;;;;9.20;6.30;;;6.60;99.90;;;;;;4808942;29;20114;-79
2021/12/29 00:49:04;;;;;;;9.80;6.28;;;6.30;99.90;;;;;;4835337;29;20039;-79
2021/12/29 00:51:29;;;;;;;9.70;6.05;;;6.40;99.90;;;;;;4819778;29;20135;-79
2021/12/29 00:53:55;;;;;;;10.60;6.88;;;6.30;99.90;;;;;;4821287;29;20042;-80
2021/12/29 00:56:21;;;;;;;15.35;8.52;;;6.60;99.90;;;;;;4789848;29;20058;-79
2021/12/29 00:58:47;;;;;;;13.27;7.85;;;6.70;99.90;;;;;;4804540;29;20050;-79
2021/12/29 01:01:13;;;;;;;12.68;7.43;;;6.50;99.90;;;;;;4820219;29;20057;-79
2021/12/29 01:03:39;;;;;;;11.20;7.22;;;6.60;99.90;;;;;;4813525;29;20500;-79
2021/12/29 01:06:06;;;;;;;15.77;8.20;;;6.70;99.90;;;;;;4815628;29;20034;-80
2021/12/29 01:08:32;;;;;;;16.08;9.15;;;6.70;99.90;;;;;;4817428;29;20039;-79
2021/12/29 01:10:57;;;;;;;16.58;9.50;;;6.70;99.90;;;;;;4805737;29;20483;-79
2021/12/29 01:13:30;;;;;;;19.35;10.60;;;6.80;99.90;;;;;;4789249;29;20046;-78
2021/12/29 01:18:33;;;;;;;16.08;9.23;;;6.90;99.90;;;;;;4808765;29;20114;-79
2021/12/29 01:20:58;;;;;;;18.17;9.65;;;6.80;99.90;;;;;;4804661;29;20042;-80
2021/12/29 01:23:25;;;;;;;15.73;8.93;;;6.60;99.90;;;;;;4815343;29;20045;-79
2021/12/29 01:25:51;;;;;;;16.50;10.23;;;6.80;99.90;;;;;;4794131;29;20033;-80
2021/12/29 01:28:17;;;;;;;18.75;10.82;;;6.70;99.90;;;;;;4818070;29;21448;-79
2021/12/29 01:30:43;;;;;;;22.73;11.63;;;6.70;99.90;;;;;;4816061;29;20125;-79
2021/12/29 01:33:09;;;;;;;;;;;6.90;99.90;;;;;;4815645;29;20053;-79
2021/12/29 01:35:36;;;;;;;20.42;11.30;;;6.90;99.90;;;;;;4799154;29;19984;-80
2021/12/29 01:38:03;;;;;;;19.33;10.70;;;6.90;99.90;;;;;;4819341;29;20049;-79
2021/12/29 01:40:30;;;;;;;19.27;11.23;;;6.70;99.90;;;;;;4816113;29;20437;-79
2021/12/29 01:42:56;;;;;;;;;;;6.90;99.90;;;;;;4796194;29;20404;-79
2021/12/29 01:45:22;;;;;;;21.55;11.30;;;6.90;99.90;;;;;;4813093;29;19920;-79
2021/12/29 01:47:48;;;;;;;18.27;10.57;;;6.70;99.90;;;;;;4816619;29;20039;-80
2021/12/29 01:50:15;;;;;;;25.55;11.73;;;6.90;99.90;;;;;;4809486;29;20038;-79
2021/12/29 01:52:42;;;;;;;20.80;11.52;;;6.70;99.90;;;;;;4808727;29;20100;-79
2021/12/29 01:55:14;;;;;;;21.58;11.07;;;6.60;99.90;;;;;;4801259;29;20047;-79
2021/12/29 01:57:41;;;;;;;22.95;12.50;;;6.80;99.90;;;;;;4830373;29;20069;-79
2021/12/29 02:00:09;;;;;;;;;;;6.80;99.90;;;;;;4808077;29;20046;-79
2021/12/29 02:02:35;;;;;;;18.58;9.77;;;6.60;99.90;;;;;;4814447;29;20026;-79
2021/12/29 02:05:01;;;;;;;18.92;10.30;;;6.60;99.90;;;;;;4822690;29;20100;-79
2021/12/29 02:07:26;;;;;;;22.60;11.70;;;6.80;99.90;;;;;;4808120;29;20053;-79
2021/12/29 02:09:52;;;;;;;21.83;11.65;;;6.50;99.90;;;;;;4795108;29;20042;-79
2021/12/29 02:12:19;;;;;;;19.92;11.32;;;6.60;99.90;;;;;;4810404;29;20134;-79
2021/12/29 02:14:45;;;;;;;18.90;11.20;;;6.50;99.90;;;;;;4804764;29;20090;-79
2021/12/29 02:17:13;;;;;;;18.88;10.40;;;6.80;99.90;;;;;;4813396;29;20042;-80
2021/12/29 02:19:45;;;;;;;19.35;10.88;;;6.60;99.90;;;;;;4812145;29;20364;-79
2021/12/29 02:22:22;;;;;;;19.17;11.15;;;6.60;99.90;;;;;;4796370;29;20079;-79
2021/12/29 02:24:54;;;;;;;20.50;10.48;;;6.80;99.90;;;;;;4798189;29;20167;-79
2021/12/29 02:27:20;;;;;;;18.73;10.02;;;6.90;99.90;;;;;;4822335;29;20377;-79
2021/12/29 02:29:47;;;;;;;15.80;10.13;;;6.70;99.90;;;;;;4838171;29;20048;-80
2021/12/29 02:32:13;;;;;;;15.80;9.32;;;6.70;99.90;;;;;;4808646;29;20404;-80
2021/12/29 02:34:40;;;;;;;14.63;8.80;;;6.80;99.90;;;;;;4838544;29;20576;-80
2021/12/29 02:37:07;;;;;;;13.75;8.18;;;6.90;99.90;;;;;;4793379;29;20501;-80
2021/12/29 02:39:36;;;;;;;13.20;7.90;;;7.00;99.90;;;;;;4830290;29;20066;-80
2021/12/29 02:42:06;;;;;;;14.27;7.75;;;7.00;99.90;;;;;;4808517;29;20058;-79
2021/12/29 02:44:39;;;;;;;13.32;6.90;;;6.90;99.90;;;;;;4808738;29;20122;-80
2021/12/29 02:47:05;;;;;;;14.32;7.65;;;7.10;99.90;;;;;;4826626;29;20342;-80
2021/12/29 02:49:31;;;;;;;;;;;6.80;99.90;;;;;;4807116;29;20045;-80
2021/12/29 02:51:57;;;;;;;15.00;7.65;;;7.10;99.90;;;;;;4807593;29;20026;-80
2021/12/29 02:54:23;;;;;;;16.33;8.02;;;7.00;99.90;;;;;;4807806;29;20088;-79
2021/12/29 02:56:54;;;;;;;15.20;7.80;;;6.90;99.90;;;;;;4802169;29;20050;-80
2021/12/29 02:59:20;;;;;;;12.95;6.85;;;6.90;99.90;;;;;;4815339;29;20058;-80
2021/12/29 03:01:46;;;;;;;18.00;8.07;;;7.10;99.90;;;;;;4830605;29;20057;-80
2021/12/29 03:04:12;;;;;;;13.55;7.40;;;7.20;99.90;;;;;;4791970;29;20050;-80
2021/12/29 03:06:38;;;;;;;12.45;6.97;;;7.10;99.90;;;;;;4806671;29;20108;-80
2021/12/29 03:09:06;;;;;;;13.60;7.10;;;7.00;99.90;;;;;;4813197;29;20132;-80
2021/12/29 03:11:32;;;;;;;13.43;7.57;;;7.20;99.90;;;;;;4813314;29;20488;-80
2021/12/29 03:13:58;;;;;;;14.65;7.22;;;7.00;99.90;;;;;;4794721;29;20111;-80
2021/12/29 03:16:24;;;;;;;13.65;7.65;;;7.00;99.90;;;;;;4821552;29;20046;-80
2021/12/29 03:18:50;;;;;;;15.20;8.30;;;7.30;99.90;;;;;;4810884;29;20058;-80
2021/12/29 03:21:16;;;;;;;13.60;7.72;;;7.30;99.90;;;;;;4793702;29;20057;-80
2021/12/29 03:23:42;;;;;;;16.60;8.90;;;7.20;99.90;;;;;;4817335;29;20054;-80
2021/12/29 03:26:08;;;;;;;15.73;8.20;;;7.30;99.90;;;;;;4820944;29;20572;-80
2021/12/29 03:28:35;;;;;;;14.80;9.02;;;7.20;99.90;;;;;;4785801;29;20050;-80
2021/12/29 03:31:01;;;;;;;20.38;10.38;;;7.40;99.90;;;;;;4820123;29;20048;-80
2021/12/29 03:33:30;;;;;;;17.50;9.63;;;7.30;99.90;;;;;;4796977;29;20373;-80
2021/12/29 03:36:03;;;;;;;18.60;10.57;;;7.40;99.90;;;;;;4802160;29;20064;-80
2021/12/29 03:38:31;;;;;;;20.33;10.18;;;7.10;99.90;;;;;;4830215;29;20074;-80
2021/12/29 03:40:58;;;;;;;21.98;11.40;;;7.10;99.90;;;;;;4824249;29;20087;-80
2021/12/29 03:43:25;;;;;;;19.75;10.77;;;7.20;99.90;;;;;;4793798;29;20137;-80
2021/12/29 03:45:51;;;;;;;17.30;10.68;;;7.10;99.90;;;;;;4825402;29;20480;-80
2021/12/29 03:48:19;;;;;;;14.93;9.23;;;7.30;99.90;;;;;;4801818;29;20057;-80
2021/12/29 03:50:46;;;;;;;19.70;10.77;;;7.30;99.90;;;;;;4826364;29;20073;-80
2021/12/29 03:53:14;;;;;;;23.05;11.57;;;7.40;99.90;;;;;;4802629;29;20068;-80
2021/12/29 03:55:41;;;;;;;16.60;9.93;;;7.20;99.90;;;;;;4814115;29;20076;-80
2021/12/29 03:58:07;;;;;;;19.38;11.40;;;7.30;99.90;;;;;;4815636;29;20038;-80
2021/12/29 04:00:33;;;;;;;18.95;10.48;;;7.30;99.90;;;;;;4816958;29;20484;-81
2021/12/29 04:02:59;;;;;;;19.33;11.45;;;7.20;99.90;;;;;;4813091;29;20045;-80
2021/12/29 04:05:26;;;;;;;17.67;10.68;;;7.20;99.90;;;;;;4807964;29;20061;-78
2021/12/29 04:07:53;;;;;;;16.38;10.35;;;7.50;99.90;;;;;;4821027;29;20030;-78
2021/12/29 04:10:20;;;;;;;16.70;9.98;;;7.30;99.90;;;;;;4820642;29;20035;-78
2021/12/29 04:12:46;;;;;;;18.48;9.82;;;7.40;99.90;;;;;;4805819;29;20472;-78
2021/12/29 04:15:14;;;;;;;19.00;10.57;;;7.30;99.90;;;;;;4820216;29;20086;-78
2021/12/29 04:17:40;;;;;;;16.40;10.07;;;7.20;99.90;;;;;;4808664;29;20460;-78
2021/12/29 04:22:57;;;;;;;18.42;10.10;;;7.30;99.90;;;;;;4810319;29;20364;-77
2021/12/29 04:25:24;;;;;;;16.52;9.57;;;7.30;99.90;;;;;;4808302;29;20046;-77
2021/12/29 04:27:55;;;;;;;15.00;9.77;;;7.30;99.90;;;;;;4821476;29;20407;-77
2021/12/29 04:30:24;;;;;;;16.17;9.65;;;7.40;99.90;;;;;;4817008;29;20070;-77
2021/12/29 04:32:52;;;;;;;18.70;10.07;;;7.20;99.90;;;;;;4811845;29;20050;-77
2021/12/29 04:35:19;;;;;;;15.30;10.45;;;7.20;99.90;;;;;;4807670;29;20148;-77
2021/12/29 04:37:45;;;;;;;18.02;12.30;;;7.20;99.90;;;;;;4804414;29;20055;-77
2021/12/29 04:40:12;;;;;;;17.48;11.07;;;7.40;99.90;;;;;;4798937;29;20058;-78
2021/12/29 04:42:37;;;;;;;14.65;9.70;;;7.50;99.90;;;;;;4803292;29;20042;-77
2021/12/29 04:45:04;;;;;;;16.25;10.98;;;7.20;99.90;;;;;;4808359;29;20050;-77
2021/12/29 04:47:31;;;;;;;20.50;12.77;;;7.50;99.90;;;;;;4813837;29;20053;-77
2021/12/29 04:50:01;;;;;;;17.40;10.98;;;7.20;99.90;;;;;;4816564;29;20128;-77
2021/12/29 04:52:29;;;;;;;17.25;11.32;;;7.20;99.90;;;;;;4826290;29;20484;-77
2021/12/29 04:54:54;;;;;;;17.10;11.43;;;7.40;99.90;;;;;;4812300;29;20519;-77
2021/12/29 04:57:20;;;;;;;15.65;11.35;;;7.40;99.90;;;;;;4812310;29;20274;-77
2021/12/29 04:59:46;;;;;;;18.98;11.73;;;7.30;99.90;;;;;;4804477;29;20046;-77
2021/12/29 05:02:12;;;;;;;17.88;10.07;;;7.40;99.90;;;;;;4804595;29;20056;-77
2021/12/29 05:04:45;;;;;;;17.23;10.60;;;7.20;99.90;;;;;;4811353;29;20163;-77
2021/12/29 05:09:57;;;;;;;15.88;10.43;;;7.40;99.90;;;;;;4806538;29;20373;-77
2021/12/29 05:12:22;;;;;;;19.50;10.95;;;7.30;99.90;;;;;;4825308;29;20057;-77
2021/12/29 05:14:48;;;;;;;18.45;10.82;;;7.50;99.90;;;;;;4811882;29;20046;-77
2021/12/29 05:17:14;;;;;;;16.58;9.93;;;7.40;99.90;;;;;;4821282;29;20078;-77
2021/12/29 05:19:40;;;;;;;17.85;10.48;;;7.40;99.90;;;;;;4810173;29;20484;-79
2021/12/29 05:22:06;;;;;;;18.85;9.98;;;7.40;99.90;;;;;;4813813;29;20510;-80
2021/12/29 05:24:31;;;;;;;14.88;10.25;;;7.40;99.90;;;;;;4810600;29;20041;-80
2021/12/29 05:26:57;;;;;;;15.77;9.80;;;7.30;99.90;;;;;;4794851;29;20493;-80
2021/12/29 05:29:23;;;;;;;17.25;10.68;;;7.40;99.90;;;;;;4794117;29;20094;-80
2021/12/29 05:31:49;;;;;;;15.70;9.63;;;7.30;99.90;;;;;;4810584;29;20054;-79
2021/12/29 05:34:15;;;;;;;18.23;10.60;;;7.50;99.90;;;;;;4806575;29;20050;-78
2021/12/29 05:36:41;;;;;;;20.88;10.52;;;7.50;99.90;;;;;;4811934;29;20125;-78
2021/12/29 05:39:08;;;;;;;17.10;10.45;;;7.30;99.90;;;;;;4809344;29;20058;-78
2021/12/29 05:41:34;;;;;;;17.00;11.35;;;7.50;99.90;;;;;;4814993;29;20179;-78
2021/12/29 05:43:59;;;;;;;20.58;11.00;;;7.50;99.90;;;;;;4792920;29;20042;-78
2021/12/29 05:46:25;;;;;;;19.85;10.88;;;7.50;99.90;;;;;;4810328;29;20404;-78
2021/12/29 05:48:51;;;;;;;19.27;10.77;;;7.20;99.90;;;;;;4808111;29;20069;-78
2021/12/29 05:51:16;;;;;;;16.40;10.43;;;7.40;99.90;;;;;;4817594;29;20050;-78
2021/12/29 05:53:42;;;;;;;18.58;11.52;;;7.50;99.90;;;;;;4805500;29;20484;-77
2021/12/29 05:56:09;;;;;;;15.73;8.90;;;7.40;99.90;;;;;;4806255;29;20046;-78
2021/12/29 05:58:36;;;;;;;16.30;10.50;;;7.20;99.90;;;;;;4803134;29;20353;-78
2021/12/29 06:01:03;;;;;;;17.85;10.23;;;7.20;99.90;;;;;;4819515;29;20046;-79
2021/12/29 06:03:29;;;;;;;17.83;11.20;;;7.40;99.90;;;;;;4795630;29;20050;-78
2021/12/29 06:05:54;;;;;;;17.95;9.43;;;7.50;99.90;;;;;;4815840;29;20190;-79
2021/12/29 06:08:20;;;;;;;14.98;9.27;;;7.30;99.90;;;;;;4809297;29;20165;-79
2021/12/29 06:10:46;;;;;;;16.00;9.70;;;7.40;99.90;;;;;;4806259;29;20053;-79
2021/12/29 06:13:12;;;;;;;16.90;9.85;;;7.30;99.90;;;;;;4813363;29;20049;-79
2021/12/29 06:15:38;;;;;;;17.52;11.15;;;7.40;99.90;;;;;;4814620;29;20077;-79
2021/12/29 06:18:04;;;;;;;15.85;9.68;;;7.30;99.90;;;;;;4802892;29;20084;-78
2021/12/29 06:20:30;;;;;;;17.70;10.48;;;7.10;99.90;;;;;;4806935;29;20481;-78
2021/12/29 06:22:56;;;;;;;18.42;10.85;;;7.40;99.90;;;;;;4817404;29;20145;-78
2021/12/29 06:25:22;;;;;;;22.10;11.18;;;7.20;99.90;;;;;;4845715;29;20073;-78
2021/12/29 06:27:48;;;;;;;16.55;10.68;;;7.40;99.90;;;;;;4802310;29;20053;-78
2021/12/29 06:30:15;;;;;;;13.70;9.18;;;7.40;99.90;;;;;;4802368;29;20030;-79
2021/12/29 06:32:43;;;;;;;17.10;10.90;;;7.10;99.90;;;;;;4820758;29;20400;-79
2021/12/29 06:35:11;;;;;;;17.08;10.45;;;7.20;99.90;;;;;;4825280;29;20482;-79
2021/12/29 06:37:37;;;;;;;18.55;11.23;;;7.50;99.90;;;;;;4840213;29;20781;-79
2021/12/29 06:40:03;;;;;;;19.25;10.35;;;7.40;99.90;;;;;;4794017;29;20058;-78
2021/12/29 06:42:29;;;;;;;21.75;11.15;;;7.40;99.90;;;;;;4816239;29;20050;-79
2021/12/29 06:44:57;;;;;;;22.55;11.95;;;7.40;99.90;;;;;;4799393;29;20037;-79
2021/12/29 06:47:23;;;;;;;22.92;12.27;;;7.20;99.90;;;;;;4791921;29;20463;-79
2021/12/29 06:49:49;;;;;;;17.92;10.32;;;7.30;99.90;;;;;;4819671;29;20042;-78
2021/12/29 06:52:15;;;;;;;16.38;10.52;;;7.50;99.90;;;;;;4795862;29;20378;-78
2021/12/29 06:54:41;;;;;;;18.35;10.38;;;7.50;99.90;;;;;;4824165;29;20488;-76
2021/12/29 06:57:07;;;;;;;16.58;9.90;;;7.50;99.90;;;;;;4807482;29;20380;-77
2021/12/29 06:59:33;;;;;;;17.17;10.13;;;7.30;99.90;;;;;;4823238;29;20070;-77
2021/12/29 07:01:59;;;;;;;18.65;10.05;;;7.40;99.90;;;;;;4810580;29;20070;-78
2021/12/29 07:04:24;;;;;;;19.17;10.50;;;7.20;99.90;;;;;;4839951;29;20208;-78
2021/12/29 07:06:51;;;;;;;22.13;11.48;;;7.20;99.90;;;;;;4799199;29;20253;-76
2021/12/29 07:09:18;;;;;;;18.45;10.27;;;7.50;99.90;;;;;;4797034;29;20107;-77
2021/12/29 07:11:43;;;;;;;16.75;10.73;;;7.30;99.90;;;;;;4804889;29;20191;-77
2021/12/29 07:14:09;;;;;;;25.50;12.25;;;7.50;99.90;;;;;;4816602;29;20137;-76
2021/12/29 07:16:37;;;;;;;21.17;11.57;;;7.40;99.90;;;;;;4819405;29;20243;-77
2021/12/29 07:19:04;;;;;;;20.23;11.43;;;7.40;99.90;;;;;;4814920;29;20134;-77
2021/12/29 07:21:30;;;;;;;17.83;10.65;;;7.40;99.90;;;;;;4803780;29;20053;-76
2021/12/29 07:23:57;;;;;;;22.70;12.05;;;7.20;99.90;;;;;;4809499;29;20042;-77
2021/12/29 07:26:23;;;;;;;19.00;10.45;;;7.30;99.90;;;;;;4816668;29;20042;-77
2021/12/29 07:28:50;;;;;;;22.80;12.07;;;7.40;99.90;;;;;;4800578;29;20053;-78
2021/12/29 07:31:16;;;;;;;21.20;11.20;;;7.20;99.90;;;;;;4815509;29;20453;-77
2021/12/29 07:33:42;;;;;;;21.17;12.20;;;7.50;99.90;;;;;;4836242;29;20050;-78
2021/12/29 07:36:07;;;;;;;19.80;10.93;;;7.30;99.90;;;;;;4816040;29;20156;-76
2021/12/29 07:38:33;;;;;;;17.98;10.23;;;7.50;99.90;;;;;;4813160;29;20441;-77
2021/12/29 07:40:59;;;;;;;14.15;8.63;;;7.50;99.90;;;;;;4789256;29;20114;-77
2021/12/29 07:43:25;;;;;;;11.32;7.22;;;7.30;99.90;;;;;;4817376;29;20052;-76
2021/12/29 07:45:53;;;;;;;14.50;7.80;;;7.40;99.90;;;;;;4816966;29;20038;-77
2021/12/29 07:48:20;;;;;;;17.80;9.00;;;7.20;99.90;;;;;;4809866;29;20053;-76
2021/12/29 07:50:45;;;;;;;15.95;9.68;;;7.40;99.90;;;;;;4802727;29;20161;-76
2021/12/29 07:53:11;;;;;;;19.45;11.10;;;7.40;99.90;;;;;;4808167;29;20180;-76
2021/12/29 07:55:37;;;;;;;22.73;10.70;;;7.40;99.90;;;;;;4806874;29;20479;-76
2021/12/29 07:58:03;;;;;;;15.77;9.30;;;7.30;99.90;;;;;;4823467;29;20046;-77
2021/12/29 08:00:28;;;;;;;14.00;8.35;;;7.20;99.90;;;;;;4816993;29;20093;-76
2021/12/29 08:02:54;;;;;;;13.23;7.72;;;7.20;99.90;;;;;;4805429;29;20093;-77
2021/12/29 08:05:20;;;;;;;20.45;10.73;;;7.40;99.90;;;;;;4808837;29;20555;-77
2021/12/29 08:07:46;;;;;;;14.38;9.32;;;7.20;99.90;;;;;;4819348;29;20120;-76
2021/12/29 08:10:13;;;;;;;14.65;9.48;;;7.30;99.90;;;;;;4792704;29;20086;-76
2021/12/29 08:12:39;;;;;;;14.63;9.15;;;7.20;99.90;;;;;;4823388;29;20050;-76
2021/12/29 08:15:05;;;;;;;15.38;8.05;;;7.40;99.90;;;;;;4807308;29;20053;-76
2021/12/29 08:17:32;;;;;;;12.80;8.25;;;7.30;99.90;;;;;;4823037;29;20049;-76
2021/12/29 08:20:02;;;;;;;13.23;8.43;;;7.20;99.90;;;;;;4790712;29;20449;-76
2021/12/29 08:22:28;;;;;;;12.98;7.40;;;7.30;99.90;;;;;;4804742;29;20665;-76
2021/12/29 08:24:54;;;;;;;11.63;8.00;;;7.50;99.90;;;;;;4826474;29;20080;-76
2021/12/29 08:27:20;;;;;;;13.20;7.50;;;7.20;99.90;;;;;;4821728;29;20045;-76
2021/12/29 08:29:46;;;;;;;11.15;7.10;;;7.30;99.90;;;;;;4803825;29;20057;-76
2021/12/29 08:32:12;;;;;;;11.10;7.47;;;7.20;99.90;;;;;;4835796;29;20038;-75
2021/12/29 08:34:37;;;;;;;12.02;6.75;;;7.30;99.90;;;;;;4811809;29;20483;-75
2021/12/29 08:37:03;;;;;;;14.95;9.50;;;7.30;99.90;;;;;;4820959;29;20092;-76
2021/12/29 08:39:29;;;;;;;13.40;7.85;;;7.50;99.90;;;;;;4818373;29;20492;-76
2021/12/29 08:41:55;;;;;;;16.33;9.15;;;7.50;99.90;;;;;;4817480;29;20505;-76
2021/12/29 08:44:21;;;;;;;14.82;9.00;;;7.30;99.90;;;;;;4808454;29;20050;-75
2021/12/29 08:46:48;;;;;;;17.25;9.63;;;7.50;99.90;;;;;;4808129;29;20057;-75
2021/12/29 08:49:13;;;;;;;;;;;7.40;99.90;;;;;;4806802;29;20103;-75
2021/12/29 08:51:39;;;;;;;21.20;10.20;;;7.30;99.90;;;;;;4823042;29;20014;-75
2021/12/29 08:54:06;;;;;;;18.95;10.40;;;7.50;99.90;;;;;;4821848;29;20083;-76
2021/12/29 08:56:31;;;;;;;17.75;10.68;;;7.50;99.90;;;;;;4804979;29;20058;-76
2021/12/29 08:58:57;;;;;;;15.68;9.70;;;7.30;99.90;;;;;;4789936;29;20050;-76
2021/12/29 09:01:25;;;;;;;19.08;9.52;;;7.60;99.90;;;;;;4822314;29;20137;-76
2021/12/29 09:03:51;;;;;;;16.80;9.05;;;7.60;99.90;;;;;;4823032;29;20121;-76
2021/12/29 09:06:17;;;;;;;;;;;7.50;99.90;;;;;;4806714;29;20562;-76
2021/12/29 09:08:44;;;;;;;15.18;8.73;;;7.60;99.90;;;;;;4822763;29;19928;-76
2021/12/29 09:11:10;;;;;;;14.85;8.90;;;7.40;99.90;;;;;;4791149;29;20410;-76
2021/12/29 09:13:36;;;;;;;15.40;8.07;;;7.60;99.90;;;;;;4822877;29;20068;-75
2021/12/29 09:16:03;;;;;;;14.23;8.38;;;7.60;99.90;;;;;;4806614;29;20054;-75
2021/12/29 09:18:31;;;;;;;17.30;8.50;;;7.60;99.90;;;;;;4804447;29;20050;-75
2021/12/29 09:21:05;;;;;;;11.48;6.38;;;7.50;99.90;;;;;;4834934;29;20046;-75
2021/12/29 09:23:32;;;;;;;13.82;7.70;;;7.60;99.90;;;;;;4806388;29;20051;-75
2021/12/29 09:25:57;;;;;;;11.75;7.40;;;7.70;99.90;;;;;;4827780;29;20049;-75
2021/12/29 09:28:23;;;;;;;13.00;6.90;;;7.50;99.90;;;;;;4825938;29;20045;-76
2021/12/29 09:30:50;;;;;;;12.38;7.30;;;7.70;99.90;;;;;;4808738;29;20077;-75
2021/12/29 09:33:19;;;;;;;16.58;7.95;;;7.60;99.90;;;;;;4838170;29;20061;-75
2021/12/29 09:35:47;;;;;;;13.93;7.47;;;7.80;99.90;;;;;;4819844;29;20050;-75
2021/12/29 09:38:16;;;;;;;15.57;7.68;;;7.80;99.90;;;;;;4807634;29;20093;-75
2021/12/29 09:40:42;;;;;;;15.13;6.95;;;7.70;99.90;;;;;;4817144;29;20504;-76
2021/12/29 09:43:08;;;;;;;9.90;6.60;;;7.80;99.90;;;;;;4804316;29;20413;-76
2021/12/29 09:45:36;;;;;;;11.75;6.90;;;7.60;99.90;;;;;;4807791;29;20050;-77
2021/12/29 09:48:03;;;;;;;14.95;8.35;;;7.90;99.90;;;;;;4824777;29;20042;-77
2021/12/29 09:50:28;;;;;;;10.45;6.07;;;7.70;99.90;;;;;;4825605;29;20057;-75
2021/12/29 09:52:55;;;;;;;11.93;7.53;;;7.70;99.90;;;;;;4799616;29;20047;-75
2021/12/29 09:55:22;;;;;;;10.55;7.22;;;7.90;99.90;;;;;;4807464;29;20069;-76
2021/12/29 09:57:52;;;;;;;12.10;7.60;;;7.70;99.90;;;;;;4821980;29;20178;-75
2021/12/29 10:00:26;;;;;;;13.85;8.32;;;7.70;99.90;;;;;;4808662;29;20117;-76
2021/12/29 10:02:54;;;;;;;11.52;7.10;;;7.70;99.90;;;;;;4817689;29;20121;-75
2021/12/29 10:05:20;;;;;;;11.73;6.82;;;7.80;99.90;;;;;;4798011;29;20041;-76
2021/12/29 10:07:57;;;;;;;9.80;5.88;;;7.80;99.90;;;;;;4809322;29;20053;-76
2021/12/29 10:10:23;;;;;;;12.32;7.15;;;7.70;99.90;;;;;;4824403;29;20102;-76
2021/12/29 10:12:49;;;;;;;12.07;7.05;;;8.00;99.90;;;;;;4803888;29;20088;-76
2021/12/29 10:15:15;;;;;;;8.75;5.53;;;7.90;99.90;;;;;;4816882;29;20082;-76
2021/12/29 10:17:41;;;;;;;9.30;5.38;;;7.90;99.90;;;;;;4810373;29;20082;-77
2021/12/29 10:20:14;;;;;;;10.75;5.95;;;7.90;99.90;;;;;;4824737;29;20402;-75
2021/12/29 10:22:41;;;;;;;9.68;6.28;;;7.80;99.90;;;;;;4823009;29;20136;-76
2021/12/29 10:25:14;;;;;;;11.02;6.63;;;7.80;99.90;;;;;;4824724;29;20053;-76
2021/12/29 10:27:41;;;;;;;13.80;7.13;;;7.90;99.90;;;;;;4822902;29;20046;-76
2021/12/29 10:30:24;;;;;;;13.18;7.10;;;8.00;99.90;;;;;;4823393;29;20054;-76
2021/12/29 10:32:50;;;;;;;11.38;6.50;;;8.00;99.90;;;;;;4832953;29;20057;-76
2021/12/29 10:35:34;;;;;;;;;;;8.00;99.90;;;;;;4809750;29;20084;-76
2021/12/29 10:38:16;;;;;;;12.07;6.55;;;7.80;99.90;;;;;;4795028;29;20439;-75
2021/12/29 10:40:42;;;;;;;14.13;7.72;;;7.80;99.90;;;;;;4806671;29;20069;-75
2021/12/29 10:43:08;;;;;;;13.70;7.05;;;7.90;99.90;;;;;;4838820;29;20114;-75
2021/12/29 10:45:36;;;;;;;11.00;6.78;;;8.00;99.90;;;;;;4812753;29;20053;-75
2021/12/29 10:48:25;;;;;;;10.35;6.28;;;8.10;99.90;;;;;;4806338;29;20041;-76
2021/12/29 10:51:06;;;;;;;9.88;6.40;;;8.10;99.90;;;;;;4806291;29;20046;-76
2021/12/29 10:53:34;;;;;;;10.57;6.80;;;7.90;99.90;;;;;;4837521;29;20086;-76
2021/12/29 10:56:00;;;;;;;11.40;6.95;;;8.10;99.90;;;;;;4820959;29;20057;-76
2021/12/29 10:58:28;;;;;;;12.15;6.55;;;8.00;99.90;;;;;;4835579;29;20049;-76
2021/12/29 11:01:07;;;;;;;10.68;6.30;;;8.00;99.90;;;;;;4809149;29;20093;-76
2021/12/29 11:03:35;;;;;;;10.18;6.13;;;8.10;99.90;;;;;;4810240;29;20054;-76
2021/12/29 11:06:03;;;;;;;11.18;5.68;;;7.90;99.90;;;;;;4841836;29;20063;-76
2021/12/29 11:08:32;;;;;;;10.02;5.55;;;8.00;99.90;;;;;;4800925;29;20137;-76
2021/12/29 11:11:04;;;;;;;9.98;5.72;;;8.10;99.90;;;;;;4806088;29;20046;-76
2021/12/29 11:13:31;;;;;;;12.00;5.90;;;7.90;99.90;;;;;;4838875;29;20476;-76
2021/12/29 11:15:59;;;;;;;11.27;5.72;;;8.20;99.90;;;;;;4824294;29;20058;-76
2021/12/29 11:18:24;;;;;;;11.63;6.20;;;8.00;99.90;;;;;;4823459;29;20100;-76
2021/12/29 11:20:58;;;;;;;11.93;5.43;;;8.20;99.90;;;;;;4824145;29;20519;-76
2021/12/29 11:23:24;;;;;;;12.73;5.65;;;8.00;99.90;;;;;;4821531;29;20058;-76
2021/12/29 11:25:51;;;;;;;10.20;4.47;;;8.10;99.90;;;;;;4815783;29;20520;-76
2021/12/29 11:28:22;;;;;;;9.85;5.35;;;7.90;99.90;;;;;;4805651;29;20091;-76
2021/12/29 11:30:47;;;;;;;6.80;3.97;;;7.90;99.90;;;;;;4836036;29;20119;-76
2021/12/29 11:33:13;;;;;;;8.00;4.65;;;7.90;99.90;;;;;;4836354;29;20053;-76
2021/12/29 11:35:42;;;;;;;9.43;4.40;;;7.90;99.90;;;;;;4836171;29;20047;-76
2021/12/29 11:38:09;;;;;;;10.60;4.80;;;8.20;99.90;;;;;;4829862;29;20086;-76
2021/12/29 11:40:40;;;;;;;9.70;4.88;;;8.10;99.90;;;;;;4823485;29;20069;-76
2021/12/29 11:43:07;;;;;;;10.77;5.40;;;8.10;99.90;;;;;;4807891;29;20089;-76
2021/12/29 11:45:34;;;;;;;8.40;4.97;;;8.00;99.90;;;;;;4794626;29;20045;-77
2021/12/29 11:48:00;;;;;;;8.13;4.53;;;8.10;99.90;;;;;;4837939;29;20396;-76
2021/12/29 11:50:34;;;;;;;9.95;5.05;;;8.10;99.90;;;;;;4797678;29;20503;-76
2021/12/29 11:53:23;;;;;;;11.65;5.70;;;8.00;99.90;;;;;;4807039;29;20058;-75
2021/12/29 11:55:53;;;;;;;10.88;5.63;;;8.20;99.90;;;;;;4806013;29;20054;-75
2021/12/29 11:58:33;;;;;;;12.35;4.60;;;8.10;99.90;;;;;;4823531;29;20046;-75
2021/12/29 12:01:21;;;;;;;8.90;4.80;;;8.00;99.90;;;;;;4817215;29;20057;-76
2021/12/29 12:03:53;;;;;;;9.65;5.20;;;8.30;99.90;;;;;;4835169;29;20054;-76
2021/12/29 12:06:31;;;;;;;14.70;6.13;;;8.30;99.90;;;;;;4815635;29;20046;-76
2021/12/29 12:09:11;;;;;;;13.57;6.32;;;8.10;99.90;;;;;;4811612;29;20075;-76
2021/12/29 12:11:49;;;;;;;16.55;6.30;;;8.30;99.90;;;;;;4823336;29;20045;-76
2021/12/29 12:14:23;;;;;;;12.43;6.03;;;8.10;99.90;;;;;;4799058;29;20507;-76
2021/12/29 12:16:57;;;;;;;15.05;6.05;;;8.30;99.90;;;;;;4805547;29;20058;-76
2021/12/29 12:19:25;;;;;;;13.45;5.90;;;8.10;99.90;;;;;;4822996;29;20050;-76
2021/12/29 12:22:08;;;;;;;13.63;5.30;;;8.30;99.90;;;;;;4823400;29;20065;-75
2021/12/29 12:24:39;;;;;;;9.70;4.80;;;8.30;99.90;;;;;;4822869;29;20462;-76
2021/12/29 12:27:11;;;;;;;10.70;3.88;;;8.30;99.90;;;;;;4818082;29;20065;-76
2021/12/29 12:29:42;;;;;;;13.02;4.10;;;8.30;99.90;;;;;;4804983;29;20105;-76
2021/12/29 12:32:10;;;;;;;7.47;3.58;;;8.10;99.90;;;;;;4790141;29;20046;-76
2021/12/29 12:34:47;;;;;;;8.52;3.70;;;8.10;99.90;;;;;;4838219;29;20061;-76
2021/12/29 12:37:18;;;;;;;7.68;3.70;;;8.10;99.90;;;;;;4822232;29;20058;-76
2021/12/29 12:39:56;;;;;;;10.93;3.80;;;8.30;99.90;;;;;;4823161;29;20555;-75
2021/12/29 12:42:22;;;;;;;11.07;4.60;;;8.40;99.90;;;;;;4813874;29;20062;-75
2021/12/29 12:44:48;;;;;;;8.60;3.55;;;8.10;99.90;;;;;;4821201;29;20049;-75
2021/12/29 12:47:15;;;;;;;8.77;3.10;;;8.40;99.90;;;;;;4822495;29;20436;-76
2021/12/29 12:49:42;;;;;;;;;;;8.20;99.90;;;;;;4823357;29;20054;-75
2021/12/29 12:52:10;;;;;;;9.90;3.70;;;8.30;99.90;;;;;;4807892;29;19927;-75
2021/12/29 12:54:48;;;;;;;7.47;3.75;;;8.10;99.90;;;;;;4804871;29;20042;-75
2021/12/29 12:57:36;;;;;;;11.95;4.15;;;8.30;99.90;;;;;;4790098;29;20058;-75